createdAt,value
2023-02-02T00:01:51.511Z,3.27
2023-02-02T00:04:24.797Z,2.60
2023-02-02T00:06:53.211Z,2.90
2023-02-02T00:09:21.499Z,2.77
2023-02-02T00:11:50.643Z,4.87
2023-02-02T00:14:18.904Z,2.63
2023-02-02T00:16:48.464Z,4.57
2023-02-02T00:19:27.836Z,2.70
2023-02-02T00:21:56.646Z,3.23
2023-02-02T00:24:24.289Z,1.37
2023-02-02T00:26:54.734Z,1.90
2023-02-02T00:29:28.191Z,2.47
2023-02-02T00:31:55.931Z,2.20
2023-02-02T00:34:26.621Z,3.47
2023-02-02T00:36:54.240Z,3.50
2023-02-02T00:39:26.150Z,2.23
2023-02-02T00:41:54.290Z,2.30
2023-02-02T00:44:40.183Z,3.10
2023-02-02T00:47:07.637Z,1.23
2023-02-02T00:49:35.135Z,1.73
2023-02-02T00:52:02.793Z,2.30
2023-02-02T00:54:30.383Z,1.60
2023-02-02T00:56:57.868Z,1.87
2023-02-02T00:59:26.369Z,1.33
2023-02-02T01:01:53.789Z,1.00
2023-02-02T01:04:21.321Z,0.77
2023-02-02T01:06:48.654Z,2.10
2023-02-02T01:09:16.093Z,3.20
2023-02-02T01:11:43.439Z,1.17
2023-02-02T01:14:10.889Z,1.27
2023-02-02T01:16:38.436Z,1.47
2023-02-02T01:19:05.774Z,1.57
2023-02-02T01:21:33.179Z,3.90
2023-02-02T01:24:00.872Z,3.33
2023-02-02T01:26:28.330Z,1.57
2023-02-02T01:29:00.814Z,1.97
2023-02-02T01:31:28.154Z,0.83
2023-02-02T01:33:55.633Z,0.97
2023-02-02T01:36:24.695Z,1.63
2023-02-02T01:38:52.158Z,1.87
2023-02-02T01:41:22.361Z,2.67
2023-02-02T01:43:53.057Z,1.00
2023-02-02T01:46:24.663Z,4.10
2023-02-02T01:49:07.050Z,2.73
2023-02-02T01:51:50.017Z,1.10
2023-02-02T01:54:29.938Z,2.50
2023-02-02T01:57:03.251Z,0.90
2023-02-02T01:59:31.637Z,1.03
2023-02-02T02:01:59.220Z,0.80
2023-02-02T02:04:29.733Z,0.70
2023-02-02T02:06:58.096Z,2.10
2023-02-02T02:09:25.546Z,1.07
2023-02-02T02:11:54.065Z,1.30
2023-02-02T02:14:40.469Z,1.70
2023-02-02T02:17:30.251Z,1.73
2023-02-02T02:20:48.067Z,1.90
2023-02-02T02:23:52.297Z,3.90
2023-02-02T02:26:47.186Z,0.80
2023-02-02T02:29:32.793Z,1.70
2023-02-02T02:32:33.905Z,3.47
2023-02-02T02:35:10.883Z,3.47
2023-02-02T02:37:52.874Z,0.40
2023-02-02T02:40:37.872Z,0.43
2023-02-02T02:43:35.738Z,1.67
2023-02-02T02:46:03.951Z,1.87
2023-02-02T02:48:31.551Z,2.63
2023-02-02T02:51:29.195Z,1.67
2023-02-02T02:53:56.911Z,3.57
2023-02-02T02:56:36.021Z,4.27
2023-02-02T02:59:14.339Z,2.60
2023-02-02T03:01:57.209Z,2.13
2023-02-02T03:04:37.344Z,1.30
2023-02-02T03:07:10.477Z,2.97
2023-02-02T03:09:43.307Z,3.67
2023-02-02T03:12:11.051Z,2.07
2023-02-02T03:14:39.615Z,2.73
2023-02-02T03:17:07.120Z,4.43
2023-02-02T03:19:34.585Z,2.63
2023-02-02T03:22:02.136Z,2.93
2023-02-02T03:24:29.598Z,2.77
2023-02-02T03:26:57.164Z,1.93
2023-02-02T03:32:09.221Z,1.27
2023-02-02T03:34:36.655Z,5.00
2023-02-02T03:37:04.106Z,2.57
2023-02-02T03:39:31.436Z,5.70
2023-02-02T03:41:58.886Z,4.87
2023-02-02T03:44:26.291Z,4.57
2023-02-02T03:46:54.708Z,1.80
2023-02-02T03:49:22.532Z,3.77
2023-02-02T03:51:49.916Z,3.60
2023-02-02T03:54:17.306Z,3.67
2023-02-02T03:56:44.660Z,7.80
2023-02-02T03:59:12.127Z,4.50
2023-02-02T04:01:39.612Z,5.67
2023-02-02T04:04:07.142Z,5.10
2023-02-02T04:06:34.934Z,6.60
2023-02-02T04:09:02.719Z,6.93
2023-02-02T04:11:30.557Z,6.77
2023-02-02T04:13:57.977Z,2.67
2023-02-02T04:16:25.539Z,3.27
2023-02-02T04:18:52.850Z,4.73
2023-02-02T04:21:20.680Z,3.67
2023-02-02T04:23:49.877Z,2.53
2023-02-02T04:26:17.415Z,6.40
2023-02-02T04:28:44.852Z,5.33
2023-02-02T04:31:12.384Z,4.73
2023-02-02T04:33:39.790Z,6.00
2023-02-02T04:36:07.671Z,5.27
2023-02-02T04:38:37.055Z,3.03
2023-02-02T04:41:12.416Z,5.13
2023-02-02T04:43:40.811Z,5.03
2023-02-02T04:46:08.391Z,4.97
2023-02-02T04:48:36.113Z,8.63
2023-02-02T04:51:06.908Z,4.13
2023-02-02T04:53:34.692Z,7.50
2023-02-02T04:56:20.600Z,4.40
2023-02-02T04:58:49.439Z,4.90
2023-02-02T05:01:19.450Z,3.37
2023-02-02T05:03:47.659Z,1.57
2023-02-02T05:06:16.037Z,3.13
2023-02-02T05:08:43.774Z,1.47
2023-02-02T05:11:16.598Z,3.40
2023-02-02T05:13:49.309Z,4.23
2023-02-02T05:16:17.019Z,1.73
2023-02-02T05:18:49.996Z,2.73
2023-02-02T05:21:17.515Z,4.80
2023-02-02T05:23:44.871Z,7.87
2023-02-02T05:26:16.800Z,6.37
2023-02-02T05:28:44.460Z,7.33
2023-02-02T05:31:12.347Z,6.60
2023-02-02T05:33:40.238Z,5.07
2023-02-02T05:36:08.267Z,4.23
2023-02-02T05:38:35.994Z,3.23
2023-02-02T05:41:03.631Z,4.00
2023-02-02T05:43:36.108Z,4.47
2023-02-02T05:46:07.198Z,3.47
2023-02-02T05:48:34.731Z,4.37
2023-02-02T05:51:08.254Z,1.50
2023-02-02T05:53:36.722Z,8.70
2023-02-02T05:56:04.510Z,8.27
2023-02-02T05:58:31.936Z,3.63
2023-02-02T06:00:59.415Z,2.40
2023-02-02T06:03:27.055Z,2.00
2023-02-02T06:05:56.192Z,2.77
2023-02-02T06:08:32.655Z,5.77
2023-02-02T06:11:00.128Z,4.43
2023-02-02T06:13:32.020Z,1.07
2023-02-02T06:16:01.031Z,7.93
2023-02-02T06:18:29.987Z,6.23
2023-02-02T06:21:01.428Z,5.13
2023-02-02T06:23:30.585Z,10.17
2023-02-02T06:25:58.960Z,5.53
2023-02-02T06:28:27.195Z,5.17
2023-02-02T06:31:03.926Z,2.70
2023-02-02T06:33:31.669Z,3.00
2023-02-02T06:36:01.844Z,4.40
2023-02-02T06:38:29.915Z,4.40
2023-02-02T06:41:01.467Z,1.73
2023-02-02T06:43:32.777Z,6.27
2023-02-02T06:46:03.386Z,2.23
2023-02-02T06:48:30.999Z,1.97
2023-02-02T06:51:00.144Z,5.47
2023-02-02T06:56:20.915Z,3.70
2023-02-02T06:58:48.497Z,0.87
2023-02-02T07:01:16.522Z,2.63
2023-02-02T07:03:48.813Z,4.33
2023-02-02T07:06:24.607Z,5.50
2023-02-02T07:09:19.502Z,1.37
2023-02-02T07:11:47.754Z,0.70
2023-02-02T07:14:15.713Z,5.10
2023-02-02T07:16:46.561Z,4.80
2023-02-02T07:19:16.185Z,1.17
2023-02-02T07:21:45.163Z,3.30
2023-02-02T07:24:16.861Z,3.93
2023-02-02T07:26:48.916Z,5.67
2023-02-02T07:29:18.616Z,5.43
2023-02-02T07:31:46.662Z,6.37
2023-02-02T07:34:15.248Z,4.07
2023-02-02T07:36:47.840Z,7.03
2023-02-02T07:39:17.407Z,2.50
2023-02-02T07:41:58.222Z,4.40
2023-02-02T07:47:28.521Z,4.83
2023-02-02T07:49:57.005Z,2.07
2023-02-02T07:52:25.388Z,2.50
2023-02-02T07:55:05.375Z,4.93
2023-02-02T07:57:43.343Z,6.00
2023-02-02T08:00:14.331Z,4.47
2023-02-02T08:02:48.614Z,5.73
2023-02-02T08:05:16.702Z,2.13
2023-02-02T08:07:45.517Z,5.53
2023-02-02T08:13:00.007Z,4.33
2023-02-02T08:15:27.647Z,5.87
2023-02-02T08:18:09.062Z,7.67
2023-02-02T08:20:36.651Z,4.80
2023-02-02T08:23:05.009Z,3.43
2023-02-02T08:25:33.025Z,1.80
2023-02-02T08:28:04.227Z,4.13
2023-02-02T08:30:33.062Z,4.27
2023-02-02T08:33:02.090Z,4.83
2023-02-02T08:38:17.955Z,4.57
2023-02-02T08:40:47.416Z,3.90
2023-02-02T08:43:19.687Z,1.80
2023-02-02T08:46:02.592Z,4.70
2023-02-02T08:51:33.476Z,4.00
2023-02-02T08:54:05.215Z,3.00
2023-02-02T08:56:33.679Z,3.17
2023-02-02T08:59:06.032Z,3.87
2023-02-02T09:01:36.209Z,5.90
2023-02-02T09:04:08.904Z,4.90
2023-02-02T09:06:38.888Z,1.63
2023-02-02T09:09:10.133Z,3.63
2023-02-02T09:11:39.082Z,0.47
2023-02-02T09:14:07.049Z,3.80
2023-02-02T09:16:36.314Z,3.03
2023-02-02T09:19:04.922Z,3.87
2023-02-02T09:21:37.164Z,1.40
2023-02-02T09:24:13.571Z,4.10
2023-02-02T09:26:42.573Z,4.80
2023-02-02T09:29:18.491Z,4.37
2023-02-02T09:31:47.181Z,0.67
2023-02-02T09:34:16.705Z,1.53
2023-02-02T09:36:45.970Z,1.27
2023-02-02T09:39:15.708Z,0.87
2023-02-02T09:42:29.535Z,0.80
2023-02-02T09:45:05.712Z,3.33
2023-02-02T09:47:37.024Z,1.07
2023-02-02T09:50:19.085Z,0.40
2023-02-02T09:53:04.035Z,4.33
2023-02-02T09:55:38.232Z,1.47
2023-02-02T09:58:23.596Z,2.53
2023-02-02T10:01:20.003Z,1.63
2023-02-02T10:04:16.603Z,4.20
2023-02-02T10:06:53.386Z,4.63
2023-02-02T10:09:35.160Z,3.10
2023-02-02T10:12:34.886Z,1.33
2023-02-02T10:15:42.280Z,1.33
2023-02-02T10:18:43.327Z,3.83
2023-02-02T10:21:26.046Z,1.17
2023-02-02T10:24:00.152Z,1.90
2023-02-02T10:27:36.853Z,0.87
2023-02-02T10:43:55.331Z,1.37
2023-02-02T10:46:28.911Z,4.63
2023-02-02T10:49:30.123Z,2.67
2023-02-02T10:52:18.141Z,1.70
2023-02-02T10:55:18.185Z,4.90
2023-02-02T10:58:01.708Z,3.10
2023-02-02T11:03:21.642Z,2.87
2023-02-02T11:06:13.263Z,2.77
2023-02-02T11:08:45.434Z,1.17
2023-02-02T11:11:21.765Z,4.87
2023-02-02T11:14:12.621Z,3.40
2023-02-02T11:16:46.118Z,2.43
2023-02-02T11:19:22.321Z,2.37
2023-02-02T11:22:01.164Z,1.70
2023-02-02T11:24:36.780Z,1.63
2023-02-02T11:27:38.784Z,2.10
2023-02-02T11:30:30.220Z,3.00
2023-02-02T11:33:04.322Z,3.07
2023-02-02T11:35:35.277Z,2.83
2023-02-02T11:38:34.315Z,4.87
2023-02-02T11:41:08.487Z,2.07
2023-02-02T11:44:17.559Z,2.23
2023-02-02T11:46:51.039Z,3.07
2023-02-02T11:49:26.111Z,2.03
2023-02-02T11:52:06.083Z,2.73
2023-02-02T11:54:39.265Z,3.53
2023-02-02T11:57:13.371Z,3.03
2023-02-02T11:59:46.447Z,4.33
2023-02-02T12:02:27.066Z,3.33
2023-02-02T12:08:30.901Z,4.67
2023-02-02T12:11:33.123Z,2.60
2023-02-02T12:14:15.265Z,2.20
2023-02-02T12:17:05.620Z,1.60
2023-02-02T12:20:11.753Z,1.57
2023-02-02T12:22:57.061Z,3.63
2023-02-02T12:26:02.370Z,2.20
2023-02-02T12:29:01.959Z,1.33
2023-02-02T12:31:35.895Z,2.33
2023-02-02T12:34:35.859Z,3.10
2023-02-02T12:37:24.143Z,3.73
2023-02-02T12:40:13.165Z,1.83
2023-02-02T12:43:19.113Z,3.57
2023-02-02T12:46:14.256Z,2.90
2023-02-02T12:49:11.232Z,1.93
2023-02-02T12:51:41.449Z,2.30
2023-02-02T12:54:58.028Z,3.50
2023-02-02T12:58:03.266Z,1.93
2023-02-02T13:00:59.349Z,1.93
2023-02-02T13:04:12.137Z,1.47
2023-02-02T13:06:41.019Z,1.30
2023-02-02T13:09:19.717Z,0.93
2023-02-02T13:11:53.240Z,2.80
2023-02-02T13:14:26.207Z,1.33
2023-02-02T13:16:57.989Z,2.23
2023-02-02T13:19:53.797Z,3.17
2023-02-02T13:22:40.017Z,2.53
2023-02-02T13:25:24.837Z,2.37
2023-02-02T13:27:53.921Z,2.17
2023-02-02T13:30:38.667Z,2.13
2023-02-02T13:33:20.387Z,1.03
2023-02-02T13:36:05.975Z,1.27
2023-02-02T13:38:42.379Z,0.73
2023-02-02T13:41:13.666Z,1.70
2023-02-02T13:44:15.843Z,1.07
2023-02-02T13:46:50.304Z,0.63
2023-02-02T13:49:17.810Z,0.97
2023-02-02T13:52:22.398Z,1.03
2023-02-02T13:54:50.760Z,1.40
2023-02-02T13:57:53.231Z,0.50
2023-02-02T14:00:50.718Z,0.67
2023-02-02T14:03:59.234Z,0.70
2023-02-02T14:06:31.356Z,0.73
2023-02-02T14:09:04.296Z,4.53
2023-02-02T14:11:35.495Z,0.70
2023-02-02T14:14:33.450Z,2.90
2023-02-02T14:17:06.584Z,4.13
2023-02-02T14:19:54.351Z,1.27
2023-02-02T14:22:43.202Z,2.10
2023-02-02T14:25:33.817Z,0.63
2023-02-02T14:28:03.800Z,0.87
2023-02-02T14:30:41.209Z,0.43
2023-02-02T14:33:33.885Z,0.47
2023-02-02T14:36:03.181Z,0.50
2023-02-02T14:39:04.598Z,2.17
2023-02-02T14:42:03.294Z,0.40
2023-02-02T14:44:37.675Z,0.90
2023-02-02T14:47:44.188Z,0.30
2023-02-02T14:50:18.267Z,0.40
2023-02-02T14:52:56.135Z,5.47
2023-02-02T14:55:24.949Z,0.60
2023-02-02T14:58:04.640Z,0.50
2023-02-02T15:00:35.357Z,0.40
2023-02-02T15:03:47.184Z,0.40
2023-02-02T15:06:34.765Z,1.10
2023-02-02T15:09:36.795Z,1.03
2023-02-02T15:12:29.416Z,2.03
2023-02-02T15:15:24.785Z,1.20
2023-02-02T15:18:17.972Z,1.33
2023-02-02T15:20:54.099Z,2.60
2023-02-02T15:23:42.552Z,0.50
2023-02-02T15:26:25.048Z,0.40
2023-02-02T15:29:01.656Z,0.50
2023-02-02T15:31:50.350Z,0.53
2023-02-02T15:34:28.365Z,0.60
2023-02-02T15:37:04.004Z,1.17
2023-02-02T15:39:42.930Z,0.50
2023-02-02T15:42:36.670Z,0.40
2023-02-02T15:45:04.839Z,0.57
2023-02-02T15:47:37.645Z,3.80
2023-02-02T15:50:20.648Z,0.30
2023-02-02T15:52:50.568Z,0.80
2023-02-02T15:55:22.979Z,0.60
2023-02-02T15:57:54.378Z,0.70
2023-02-02T16:00:34.472Z,0.93
2023-02-02T16:03:14.853Z,0.40
2023-02-02T16:05:46.536Z,0.60
2023-02-02T16:08:24.594Z,0.40
2023-02-02T16:11:02.907Z,0.73
2023-02-02T16:13:32.766Z,1.23
2023-02-02T16:16:03.243Z,0.40
2023-02-02T16:18:32.480Z,0.40
2023-02-02T16:21:03.518Z,0.97
2023-02-02T16:23:37.483Z,0.60
2023-02-02T16:26:07.057Z,0.60
2023-02-02T16:28:35.609Z,0.63
2023-02-02T16:31:03.323Z,0.73
2023-02-02T16:33:39.206Z,0.70
2023-02-02T16:36:25.173Z,0.97
2023-02-02T16:38:54.341Z,0.40
2023-02-02T16:41:34.576Z,0.40
2023-02-02T16:44:30.956Z,1.20
2023-02-02T16:46:59.875Z,0.93
2023-02-02T16:49:29.251Z,3.50
2023-02-02T16:52:36.292Z,0.83
2023-02-02T16:55:10.777Z,0.60
2023-02-02T16:57:38.341Z,0.40
2023-02-02T17:00:10.020Z,0.40
2023-02-02T17:02:40.989Z,0.40
2023-02-02T17:05:19.746Z,4.90
2023-02-02T17:08:04.010Z,0.50
2023-02-02T17:10:43.291Z,0.60
2023-02-02T17:13:36.602Z,0.77
2023-02-02T17:16:04.485Z,0.53
2023-02-02T17:18:31.920Z,2.03
2023-02-02T17:21:04.362Z,0.70
2023-02-02T17:23:32.705Z,0.63
2023-02-02T17:26:00.508Z,0.50
2023-02-02T17:28:30.031Z,0.43
2023-02-02T17:31:08.129Z,0.83
2023-02-02T17:33:37.036Z,0.83
2023-02-02T17:36:05.399Z,0.87
2023-02-02T17:38:33.030Z,2.03
2023-02-02T17:41:02.312Z,1.00
2023-02-02T17:43:31.021Z,0.80
2023-02-02T17:45:58.867Z,0.30
2023-02-02T17:48:26.443Z,0.50
2023-02-02T17:50:53.854Z,0.40
2023-02-02T17:53:23.297Z,0.60
2023-02-02T17:55:52.154Z,0.93
2023-02-02T17:58:19.681Z,0.80
2023-02-02T18:00:51.371Z,0.63
2023-02-02T18:03:26.187Z,0.70
2023-02-02T18:05:53.998Z,2.13
2023-02-02T18:08:21.589Z,1.17
2023-02-02T18:10:51.141Z,0.50
2023-02-02T18:13:24.247Z,0.40
2023-02-02T18:15:53.075Z,1.20
2023-02-02T18:18:20.600Z,0.70
2023-02-02T18:20:50.379Z,1.10
2023-02-02T18:23:19.153Z,2.47
2023-02-02T18:25:46.731Z,0.50
2023-02-02T18:28:17.257Z,1.07
2023-02-02T18:30:47.046Z,0.60
2023-02-02T18:33:17.584Z,1.93
2023-02-02T18:35:46.424Z,0.73
2023-02-02T18:38:14.991Z,1.23
2023-02-02T18:40:42.717Z,1.07
2023-02-02T18:43:10.486Z,0.90
2023-02-02T18:45:38.259Z,1.13
2023-02-02T18:48:05.884Z,1.30
2023-02-02T18:50:33.343Z,0.80
2023-02-02T18:53:00.835Z,0.60
2023-02-02T18:55:28.770Z,1.00
2023-02-02T18:57:59.279Z,0.60
2023-02-02T19:00:27.722Z,0.63
2023-02-02T19:02:55.199Z,0.90
2023-02-02T19:05:41.078Z,1.50
2023-02-02T19:08:08.580Z,1.43
2023-02-02T19:10:36.317Z,1.63
2023-02-02T19:13:20.806Z,1.70
2023-02-02T19:15:49.947Z,2.23
2023-02-02T19:18:24.272Z,0.50
2023-02-02T19:20:53.015Z,2.00
2023-02-02T19:23:25.813Z,1.73
2023-02-02T19:25:55.643Z,1.17
2023-02-02T19:28:26.430Z,1.40
2023-02-02T19:30:56.270Z,0.60
2023-02-02T19:33:33.273Z,1.47
2023-02-02T19:36:00.737Z,0.60
2023-02-02T19:38:29.909Z,0.40
2023-02-02T19:41:00.185Z,0.67
2023-02-02T19:43:29.721Z,1.00
2023-02-02T19:46:00.614Z,0.90
2023-02-02T19:48:39.144Z,0.90
2023-02-02T19:51:42.016Z,0.63
2023-02-02T19:54:40.547Z,0.67
2023-02-02T19:57:26.613Z,0.80
2023-02-02T19:59:54.749Z,0.80
2023-02-02T20:02:52.077Z,1.03
2023-02-02T20:05:22.612Z,0.30
2023-02-02T20:07:58.120Z,1.47
2023-02-02T20:10:30.397Z,1.63
2023-02-02T20:12:57.874Z,1.27
2023-02-02T20:15:28.221Z,1.50
2023-02-02T20:17:59.792Z,1.10
2023-02-02T20:20:38.875Z,1.17
2023-02-02T20:23:27.370Z,0.67
2023-02-02T20:25:55.016Z,2.10
2023-02-02T20:28:45.243Z,0.70
2023-02-02T20:31:20.894Z,1.63
2023-02-02T20:33:53.562Z,1.27
2023-02-02T20:36:29.631Z,1.20
2023-02-02T20:39:01.478Z,3.03
2023-02-02T20:41:29.001Z,1.53
2023-02-02T20:43:56.695Z,1.13
2023-02-02T20:46:24.423Z,0.90
2023-02-02T20:48:51.833Z,1.80
2023-02-02T20:51:27.729Z,1.27
2023-02-02T20:53:56.090Z,1.10
2023-02-02T20:56:24.454Z,0.70
2023-02-02T20:58:52.356Z,0.97
2023-02-02T21:01:19.943Z,1.80
2023-02-02T21:03:47.360Z,1.47
2023-02-02T21:06:14.821Z,1.20
2023-02-02T21:08:42.394Z,1.27
2023-02-02T21:11:10.132Z,1.27
2023-02-02T21:13:37.733Z,0.80
2023-02-02T21:16:05.633Z,0.53
2023-02-02T21:18:33.109Z,1.07
2023-02-02T21:21:00.682Z,0.30
2023-02-02T21:23:29.064Z,0.83
2023-02-02T21:25:56.684Z,0.40
2023-02-02T21:28:25.800Z,0.70
2023-02-02T21:30:53.437Z,0.50
2023-02-02T21:33:20.843Z,2.20
2023-02-02T21:35:49.502Z,1.80
2023-02-02T21:38:19.589Z,0.63
2023-02-02T21:40:48.136Z,0.60
2023-02-02T21:43:18.531Z,0.90
2023-02-02T21:45:51.945Z,2.30
2023-02-02T21:48:19.633Z,1.80
2023-02-02T21:50:47.110Z,0.50
2023-02-02T21:53:17.471Z,0.60
2023-02-02T21:56:06.909Z,0.40
2023-02-02T21:58:38.498Z,0.80
2023-02-02T22:01:15.207Z,0.37
2023-02-02T22:03:46.930Z,0.50
2023-02-02T22:06:21.603Z,0.70
2023-02-02T22:08:50.236Z,0.50
2023-02-02T22:11:29.520Z,0.77
2023-02-02T22:14:13.590Z,0.97
2023-02-02T22:16:45.174Z,0.70
2023-02-02T22:19:32.025Z,2.43
2023-02-02T22:22:22.882Z,1.07
2023-02-02T22:24:59.845Z,0.50
2023-02-02T22:27:42.886Z,1.87
2023-02-02T22:30:33.351Z,1.13
2023-02-02T22:33:01.091Z,1.80
2023-02-02T22:35:28.612Z,0.70
2023-02-02T22:37:56.045Z,0.40
2023-02-02T22:40:24.747Z,0.30
2023-02-02T22:42:54.537Z,0.70
2023-02-02T22:45:22.342Z,0.87
2023-02-02T22:47:51.162Z,0.97
2023-02-02T22:50:21.966Z,0.80
2023-02-02T22:52:49.615Z,0.60
2023-02-02T22:55:17.678Z,2.83
2023-02-02T22:57:46.862Z,2.17
2023-02-02T23:00:20.543Z,1.00
2023-02-02T23:02:48.173Z,0.60
2023-02-02T23:05:17.711Z,0.60
2023-02-02T23:07:45.736Z,0.77
2023-02-02T23:10:15.695Z,1.10
2023-02-02T23:12:44.195Z,2.40
2023-02-02T23:15:12.736Z,1.77
2023-02-02T23:17:40.432Z,0.73
2023-02-02T23:20:10.719Z,0.60
2023-02-02T23:22:38.168Z,0.67
2023-02-02T23:25:06.438Z,0.50
2023-02-02T23:27:33.783Z,0.60
2023-02-02T23:30:01.252Z,0.53
2023-02-02T23:32:28.718Z,0.60
2023-02-02T23:34:56.202Z,0.43
2023-02-02T23:37:23.657Z,1.33
2023-02-02T23:39:51.129Z,0.60
2023-02-02T23:42:18.843Z,0.70
2023-02-02T23:44:46.206Z,1.13
2023-02-02T23:47:13.739Z,0.77
2023-02-02T23:49:41.481Z,0.60
2023-02-02T23:52:09.015Z,0.77
2023-02-02T23:54:37.081Z,1.20
2023-02-02T23:57:04.835Z,0.73
2023-02-02T23:59:32.275Z,0.50
